createdAt,value
2022-11-12T00:01:55.104Z,8.50
2022-11-12T00:07:08.612Z,8.60
2022-11-12T00:12:22.194Z,8.60
2022-11-12T00:14:48.974Z,8.60
2022-11-12T00:17:15.711Z,8.70
2022-11-12T00:19:42.469Z,8.70
2022-11-12T00:22:09.299Z,8.70
2022-11-12T00:24:36.142Z,8.60
2022-11-12T00:27:02.922Z,8.50
2022-11-12T00:29:29.686Z,8.40
2022-11-12T00:34:43.163Z,8.30
2022-11-12T00:37:09.947Z,8.20
2022-11-12T00:39:36.732Z,8.10
2022-11-12T00:42:03.990Z,8.00
2022-11-12T00:44:30.767Z,8.00
2022-11-12T00:46:57.773Z,8.00
2022-11-12T00:49:24.572Z,7.90
2022-11-12T00:51:51.479Z,7.80
2022-11-12T00:54:18.282Z,7.80
2022-11-12T00:56:47.370Z,7.80
2022-11-12T00:59:14.542Z,7.70
2022-11-12T01:01:41.790Z,7.70
2022-11-12T01:04:09.214Z,7.60
2022-11-12T01:06:39.654Z,7.60
2022-11-12T01:09:07.095Z,7.60
2022-11-12T01:11:34.331Z,7.50
2022-11-12T01:16:51.219Z,7.50
2022-11-12T01:19:17.993Z,7.60
2022-11-12T01:21:45.322Z,7.60
2022-11-12T01:24:12.435Z,7.70
2022-11-12T01:26:40.455Z,7.70
2022-11-12T01:29:07.589Z,7.70
2022-11-12T01:31:36.770Z,7.70
2022-11-12T01:36:53.473Z,7.80
2022-11-12T01:42:06.935Z,7.80
2022-11-12T01:47:29.258Z,7.90
2022-11-12T01:52:35.547Z,7.90
2022-11-12T01:55:07.524Z,8.00
2022-11-12T01:57:41.531Z,8.00
2022-11-12T02:00:11.631Z,8.00
2022-11-12T02:05:09.903Z,8.10
2022-11-12T02:07:40.755Z,8.10
2022-11-12T02:10:08.964Z,8.10
2022-11-12T02:12:36.229Z,8.20
2022-11-12T02:15:03.959Z,8.30
2022-11-12T02:17:30.704Z,8.30
2022-11-12T02:20:01.266Z,8.30
2022-11-12T02:22:28.045Z,8.30
2022-11-12T02:24:55.107Z,8.30
2022-11-12T02:27:22.956Z,8.40
2022-11-12T02:29:49.740Z,8.30
2022-11-12T02:32:16.490Z,8.30
2022-11-12T02:34:43.279Z,8.30
2022-11-12T02:37:10.073Z,8.30
2022-11-12T02:39:36.889Z,8.30
2022-11-12T02:42:03.915Z,8.40
2022-11-12T02:44:31.692Z,8.40
2022-11-12T02:46:58.430Z,8.40
2022-11-12T02:49:25.208Z,8.40
2022-11-12T02:51:52.003Z,8.50
2022-11-12T02:54:18.838Z,8.50
2022-11-12T02:56:45.585Z,8.50
2022-11-12T02:59:12.374Z,8.50
2022-11-12T03:01:39.128Z,8.40
2022-11-12T03:04:05.906Z,8.30
2022-11-12T03:06:32.667Z,8.30
2022-11-12T03:08:59.478Z,8.20
2022-11-12T03:11:26.336Z,8.10
2022-11-12T03:13:53.112Z,8.10
2022-11-12T03:18:46.578Z,7.90
2022-11-12T03:21:13.365Z,7.80
2022-11-12T03:26:06.949Z,7.80
2022-11-12T03:28:33.713Z,7.70
2022-11-12T03:31:00.965Z,7.60
2022-11-12T03:33:27.795Z,7.50
2022-11-12T03:35:55.635Z,7.50
2022-11-12T03:38:22.442Z,7.50
2022-11-12T03:40:49.746Z,7.40
2022-11-12T03:43:16.546Z,7.40
2022-11-12T03:48:30.066Z,7.20
2022-11-12T03:53:47.185Z,7.20
2022-11-12T03:59:00.697Z,7.10
2022-11-12T04:01:27.579Z,7.10
2022-11-12T04:03:54.423Z,7.00
2022-11-12T04:06:21.287Z,7.10
2022-11-12T04:11:34.807Z,7.00
2022-11-12T04:16:28.469Z,6.90
2022-11-12T04:18:56.963Z,6.90
2022-11-12T04:21:46.748Z,6.90
2022-11-12T04:24:13.510Z,6.80
2022-11-12T04:29:26.996Z,6.70
2022-11-12T04:34:40.443Z,6.70
2022-11-12T04:37:07.662Z,6.70
2022-11-12T04:39:34.455Z,6.70
2022-11-12T04:42:01.674Z,6.60
2022-11-12T04:47:15.134Z,6.60
2022-11-12T04:49:41.926Z,6.60
2022-11-12T04:52:09.434Z,6.60
2022-11-12T04:54:36.183Z,6.60
2022-11-12T04:59:49.656Z,6.40
2022-11-12T05:02:17.364Z,6.40
2022-11-12T05:04:44.199Z,6.30
2022-11-12T05:07:11.094Z,6.30
2022-11-12T05:09:38.658Z,6.30
2022-11-12T05:12:05.636Z,6.30
2022-11-12T05:14:32.430Z,6.30
2022-11-12T05:16:59.338Z,6.20
2022-11-12T05:19:26.355Z,6.20
2022-11-12T05:21:53.144Z,6.10
2022-11-12T05:24:40.434Z,6.10
2022-11-12T05:27:13.092Z,6.10
2022-11-12T05:29:40.248Z,6.10
2022-11-12T05:34:55.964Z,6.00
2022-11-12T05:40:10.079Z,6.00
2022-11-12T05:42:36.838Z,6.10
2022-11-12T05:45:03.966Z,6.10
2022-11-12T05:50:17.493Z,6.10
2022-11-12T05:52:45.267Z,6.10
2022-11-12T05:55:12.031Z,6.10
2022-11-12T05:57:38.770Z,6.00
2022-11-12T06:00:06.150Z,5.90
2022-11-12T06:02:32.991Z,5.90
2022-11-12T06:04:59.784Z,5.90
2022-11-12T06:07:26.526Z,5.80
2022-11-12T06:09:53.297Z,5.80
2022-11-12T06:12:20.069Z,5.80
2022-11-12T06:14:46.801Z,5.90
2022-11-12T06:17:13.584Z,5.90
2022-11-12T06:19:40.379Z,6.00
2022-11-12T06:24:53.831Z,6.00
2022-11-12T06:30:08.641Z,6.00
2022-11-12T06:35:22.511Z,5.90
2022-11-12T06:37:50.002Z,5.80
2022-11-12T06:40:16.800Z,5.90
2022-11-12T06:42:43.631Z,5.80
2022-11-12T06:45:10.681Z,5.80
2022-11-12T06:47:37.429Z,5.80
2022-11-12T06:50:04.522Z,5.80
2022-11-12T06:52:31.299Z,5.80
2022-11-12T06:54:58.049Z,5.80
2022-11-12T06:57:24.840Z,5.80
2022-11-12T06:59:51.609Z,5.80
2022-11-12T07:02:18.349Z,5.90
2022-11-12T07:04:45.121Z,6.00
2022-11-12T07:07:11.950Z,6.10
2022-11-12T07:09:38.765Z,6.20
2022-11-12T07:12:05.866Z,6.40
2022-11-12T07:14:32.614Z,6.40
2022-11-12T07:16:59.415Z,6.40
2022-11-12T07:19:26.512Z,6.40
2022-11-12T07:21:53.321Z,6.40
2022-11-12T07:27:06.740Z,6.40
2022-11-12T07:29:46.800Z,6.40
2022-11-12T07:32:15.198Z,6.40
2022-11-12T07:34:41.947Z,6.50
2022-11-12T07:37:08.723Z,6.70
2022-11-12T07:39:35.465Z,6.90
2022-11-12T07:42:02.237Z,6.80
2022-11-12T07:44:29.004Z,6.70
2022-11-12T07:46:55.804Z,6.80
2022-11-12T07:49:22.646Z,7.00
2022-11-12T07:51:49.430Z,7.70
2022-11-12T07:54:16.239Z,7.80
2022-11-12T07:56:43.005Z,7.80
2022-11-12T07:59:09.775Z,7.70
2022-11-12T08:01:41.620Z,7.60
2022-11-12T08:04:10.565Z,7.70
2022-11-12T08:06:37.868Z,7.70
2022-11-12T08:09:06.606Z,7.60
2022-11-12T08:11:34.144Z,7.80
2022-11-12T08:14:01.229Z,7.80
2022-11-12T08:16:28.209Z,8.10
2022-11-12T08:18:58.757Z,8.00
2022-11-12T08:21:25.511Z,8.10
2022-11-12T08:23:52.336Z,8.10
2022-11-12T08:26:21.002Z,8.10
2022-11-12T08:28:47.928Z,8.10
2022-11-12T08:31:20.313Z,8.10
2022-11-12T08:33:47.473Z,8.10
2022-11-12T08:39:03.622Z,8.90
2022-11-12T08:44:17.030Z,9.80
2022-11-12T08:46:43.783Z,9.80
2022-11-12T08:49:10.548Z,10.20
2022-11-12T08:51:37.376Z,10.90
2022-11-12T08:54:04.280Z,11.60
2022-11-12T08:56:31.056Z,11.50
2022-11-12T08:58:57.864Z,11.30
2022-11-12T09:01:24.727Z,11.30
2022-11-12T09:03:51.695Z,11.60
2022-11-12T09:06:18.537Z,12.10
2022-11-12T09:08:45.334Z,12.70
2022-11-12T09:11:12.156Z,12.60
2022-11-12T09:13:39.255Z,12.80
2022-11-12T09:16:07.571Z,12.40
2022-11-12T09:18:35.193Z,12.50
2022-11-12T09:23:51.146Z,13.30
2022-11-12T09:29:04.577Z,14.20
2022-11-12T09:34:18.025Z,14.90
2022-11-12T09:39:31.529Z,14.60
2022-11-12T09:42:02.001Z,14.70
2022-11-12T09:44:35.545Z,14.70
2022-11-12T09:47:12.519Z,15.10
2022-11-12T09:49:55.728Z,15.50
2022-11-12T09:52:28.917Z,15.70
2022-11-12T09:55:13.214Z,15.80
2022-11-12T09:57:39.943Z,16.40
2022-11-12T10:03:49.719Z,17.30
2022-11-12T10:06:21.785Z,17.20
2022-11-12T10:08:51.590Z,17.00
2022-11-12T10:11:39.545Z,16.60
2022-11-12T10:14:13.628Z,16.90
2022-11-12T10:17:19.673Z,17.60
2022-11-12T10:20:04.628Z,17.50
2022-11-12T10:23:03.500Z,17.10
2022-11-12T10:28:29.435Z,17.60
2022-11-12T10:31:04.838Z,17.70
2022-11-12T10:33:32.232Z,17.10
2022-11-12T10:36:17.425Z,17.00
2022-11-12T10:38:47.833Z,16.30
2022-11-12T10:41:30.357Z,16.50
2022-11-12T10:44:05.566Z,16.20
2022-11-12T10:49:25.160Z,16.50
2022-11-12T10:54:44.388Z,17.40
2022-11-12T10:57:25.578Z,17.40
2022-11-12T11:03:05.492Z,17.30
2022-11-12T11:05:45.700Z,17.20
2022-11-12T11:08:12.548Z,16.70
2022-11-12T11:10:39.465Z,16.40
2022-11-12T11:13:26.037Z,16.30
2022-11-12T11:18:55.666Z,16.60
2022-11-12T11:21:42.404Z,17.10
2022-11-12T11:24:18.879Z,17.70
2022-11-12T11:27:03.832Z,18.20
2022-11-12T11:36:19.376Z,18.20
2022-11-12T11:39:14.431Z,18.80
2022-11-12T11:42:22.632Z,19.10
2022-11-12T11:45:08.178Z,20.20
2022-11-12T11:48:01.693Z,20.30
2022-11-12T11:50:33.817Z,20.20
2022-11-12T11:56:26.336Z,21.60
2022-11-12T11:59:25.199Z,21.80
2022-11-12T12:01:57.741Z,21.60
2022-11-12T12:04:43.359Z,21.70
2022-11-12T12:07:19.083Z,21.80
2022-11-12T12:12:41.276Z,21.90
2022-11-12T12:15:16.995Z,21.20
2022-11-12T12:18:09.799Z,20.90
2022-11-12T12:20:53.906Z,20.60
2022-11-12T12:23:34.725Z,19.50
2022-11-12T12:26:07.823Z,19.30
2022-11-12T12:28:55.512Z,19.30
2022-11-12T12:31:27.593Z,18.40
2022-11-12T12:34:03.284Z,17.20
2022-11-12T12:42:46.875Z,17.00
2022-11-12T12:45:35.790Z,16.80
2022-11-12T12:48:06.015Z,16.50
2022-11-12T12:50:36.313Z,16.20
2022-11-12T12:53:22.490Z,16.20
2022-11-12T12:56:00.597Z,16.10
2022-11-12T12:58:29.120Z,15.90
2022-11-12T13:03:44.331Z,15.50
2022-11-12T13:06:23.381Z,15.00
2022-11-12T13:09:06.978Z,15.20
2022-11-12T13:11:42.906Z,15.00
2022-11-12T13:14:31.228Z,14.80
2022-11-12T13:16:57.971Z,14.70
2022-11-12T13:19:29.981Z,14.60
2022-11-12T13:22:18.647Z,14.60
2022-11-12T13:25:05.470Z,14.30
2022-11-12T13:27:43.879Z,14.30
2022-11-12T13:30:13.716Z,14.10
2022-11-12T13:32:46.426Z,14.10
2022-11-12T13:35:18.933Z,13.90
2022-11-12T13:37:59.601Z,13.80
2022-11-12T13:40:46.529Z,13.60
2022-11-12T13:43:18.364Z,13.60
2022-11-12T13:45:59.110Z,13.50
2022-11-12T13:48:45.984Z,13.40
2022-11-12T13:51:41.943Z,13.20
2022-11-12T13:54:32.223Z,13.30
2022-11-12T13:57:20.790Z,13.30
2022-11-12T13:59:47.659Z,13.20
2022-11-12T14:02:26.394Z,13.30
2022-11-12T14:04:54.047Z,13.20
2022-11-12T14:07:26.994Z,13.30
2022-11-12T14:13:25.039Z,13.10
2022-11-12T14:16:15.433Z,13.20
2022-11-12T14:25:00.086Z,13.00
2022-11-12T14:27:29.887Z,12.90
2022-11-12T14:30:12.626Z,12.80
2022-11-12T14:32:44.879Z,12.70
2022-11-12T14:35:25.540Z,12.60
2022-11-12T14:37:56.844Z,12.40
2022-11-12T14:40:26.078Z,12.20
2022-11-12T14:42:53.475Z,12.00
2022-11-12T14:48:09.494Z,11.60
2022-11-12T14:50:41.061Z,11.50
2022-11-12T14:53:24.956Z,11.30
2022-11-12T14:55:54.198Z,11.20
2022-11-12T14:58:22.980Z,11.10
2022-11-12T15:00:54.371Z,11.00
2022-11-12T15:03:25.251Z,10.90
2022-11-12T15:06:07.514Z,10.70
2022-11-12T15:08:37.122Z,10.60
2022-11-12T15:11:25.026Z,10.50
2022-11-12T15:13:54.533Z,10.40
2022-11-12T15:16:35.948Z,10.20
2022-11-12T15:19:14.228Z,10.10
2022-11-12T15:21:53.506Z,10.00
2022-11-12T15:24:40.628Z,9.80
2022-11-12T15:27:39.865Z,9.70
2022-11-12T15:30:24.876Z,9.60
2022-11-12T15:33:13.618Z,9.50
2022-11-12T15:35:41.722Z,9.30
2022-11-12T15:38:33.194Z,9.30
2022-11-12T15:40:59.974Z,9.20
2022-11-12T15:43:30.419Z,9.10
2022-11-12T15:45:57.344Z,9.00
2022-11-12T15:50:51.122Z,8.80
2022-11-12T15:53:18.135Z,8.80
2022-11-12T15:55:45.862Z,8.70
2022-11-12T15:58:18.442Z,8.60
2022-11-12T16:00:45.890Z,8.50
2022-11-12T16:03:14.907Z,8.40
2022-11-12T16:05:42.645Z,8.40
2022-11-12T16:08:09.766Z,8.30
2022-11-12T16:10:38.407Z,8.30
2022-11-12T16:13:06.644Z,8.20
2022-11-12T16:15:33.727Z,8.10
2022-11-12T16:18:00.501Z,8.10
2022-11-12T16:20:33.957Z,8.00
2022-11-12T16:23:01.289Z,8.00
2022-11-12T16:28:20.090Z,8.00
2022-11-12T16:30:47.960Z,7.80
2022-11-12T16:33:15.626Z,7.80
2022-11-12T16:35:42.515Z,7.80
2022-11-12T16:41:04.083Z,7.70
2022-11-12T16:43:31.014Z,7.70
2022-11-12T16:45:58.332Z,7.60
2022-11-12T16:48:25.093Z,7.50
2022-11-12T16:50:51.899Z,7.50
2022-11-12T16:53:18.668Z,7.40
2022-11-12T16:55:45.438Z,7.30
2022-11-12T16:58:15.649Z,7.30
2022-11-12T17:00:45.949Z,7.40
2022-11-12T17:03:13.253Z,7.20
2022-11-12T17:08:32.560Z,7.10
2022-11-12T17:11:06.973Z,7.20
2022-11-12T17:13:33.737Z,7.30
2022-11-12T17:16:00.492Z,7.20
2022-11-12T17:21:16.331Z,7.30
2022-11-12T17:23:43.514Z,7.30
2022-11-12T17:26:13.036Z,7.20
2022-11-12T17:28:39.969Z,7.20
2022-11-12T17:34:06.501Z,7.20
2022-11-12T17:39:20.091Z,7.20
2022-11-12T17:44:33.869Z,7.00
2022-11-12T17:47:00.710Z,7.00
2022-11-12T17:49:27.670Z,7.00
2022-11-12T17:51:54.452Z,7.00
2022-11-12T17:54:21.272Z,6.90
2022-11-12T17:59:34.772Z,7.00
2022-11-12T18:04:48.205Z,6.80
2022-11-12T18:10:01.711Z,6.80
2022-11-12T18:15:15.170Z,6.90
2022-11-12T18:17:41.910Z,6.80
2022-11-12T18:20:09.013Z,6.70
2022-11-12T18:22:39.528Z,6.80
2022-11-12T18:27:57.107Z,6.70
2022-11-12T18:30:23.890Z,6.60
2022-11-12T18:32:51.466Z,6.70
2022-11-12T18:35:18.251Z,6.60
2022-11-12T18:37:45.042Z,6.50
2022-11-12T18:40:11.996Z,6.60
2022-11-12T18:42:38.819Z,6.70
2022-11-12T18:47:52.770Z,6.80
2022-11-12T18:50:19.515Z,6.80
2022-11-12T18:52:46.310Z,6.80
2022-11-12T18:55:13.125Z,6.80
2022-11-12T18:57:39.878Z,6.70
2022-11-12T19:00:07.146Z,6.80
2022-11-12T19:02:33.996Z,6.70
2022-11-12T19:05:00.780Z,6.90
2022-11-12T19:07:27.534Z,6.90
2022-11-12T19:09:54.326Z,7.00
2022-11-12T19:12:21.092Z,7.00
2022-11-12T19:14:47.886Z,7.00
2022-11-12T19:17:14.700Z,7.00
2022-11-12T19:19:41.484Z,7.00
2022-11-12T19:22:08.290Z,7.00
2022-11-12T19:24:35.130Z,7.00
2022-11-12T19:27:01.894Z,7.00
2022-11-12T19:29:28.654Z,6.90
2022-11-12T19:31:55.463Z,6.90
2022-11-12T19:34:22.269Z,6.90
2022-11-12T19:39:35.798Z,6.80
2022-11-12T19:44:49.716Z,7.00
2022-11-12T19:50:03.314Z,7.00
2022-11-12T19:52:30.065Z,7.00
2022-11-12T19:54:56.896Z,7.10
2022-11-12T19:57:23.683Z,7.10
2022-11-12T19:59:50.488Z,7.00
2022-11-12T20:02:17.283Z,7.00
2022-11-12T20:04:44.166Z,7.00
2022-11-12T20:07:10.997Z,7.10
2022-11-12T20:09:37.875Z,7.10
2022-11-12T20:12:05.096Z,7.10
2022-11-12T20:14:31.979Z,7.00
2022-11-12T20:16:58.732Z,7.00
2022-11-12T20:19:25.741Z,7.00
2022-11-12T20:21:52.536Z,7.00
2022-11-12T20:24:19.317Z,6.90
2022-11-12T20:26:46.107Z,6.90
2022-11-12T20:29:12.929Z,6.90
2022-11-12T20:31:40.245Z,6.90
2022-11-12T20:34:07.120Z,6.90
2022-11-12T20:36:33.858Z,6.80
2022-11-12T20:39:00.632Z,6.80
2022-11-12T20:41:27.653Z,6.80
2022-11-12T20:43:59.382Z,6.80
2022-11-12T20:49:13.989Z,6.80
2022-11-12T20:54:27.523Z,6.70
2022-11-12T20:56:54.321Z,6.70
2022-11-12T20:59:21.116Z,6.70
2022-11-12T21:01:47.903Z,6.70
2022-11-12T21:04:14.861Z,6.60
2022-11-12T21:06:41.792Z,6.60
2022-11-12T21:09:08.602Z,6.60
2022-11-12T21:11:35.351Z,6.60
2022-11-12T21:14:02.101Z,6.60
2022-11-12T21:16:28.890Z,6.70
2022-11-12T21:18:55.649Z,6.70
2022-11-12T21:21:22.449Z,6.70
2022-11-12T21:23:49.374Z,6.70
2022-11-12T21:26:21.642Z,6.70
2022-11-12T21:28:50.881Z,6.70
2022-11-12T21:31:20.787Z,6.70
2022-11-12T21:36:42.646Z,6.70
2022-11-12T21:41:56.112Z,6.70
2022-11-12T21:46:49.629Z,6.60
2022-11-12T21:49:16.458Z,6.60
2022-11-12T21:51:43.205Z,6.50
2022-11-12T21:54:10.545Z,6.40
2022-11-12T21:56:37.450Z,6.40
2022-11-12T21:59:04.406Z,6.40
2022-11-12T22:01:33.230Z,6.30
2022-11-12T22:06:47.036Z,6.30
2022-11-12T22:12:00.629Z,6.30
2022-11-12T22:14:27.435Z,6.30
2022-11-12T22:16:54.366Z,6.30
2022-11-12T22:19:21.184Z,6.40
2022-11-12T22:21:47.920Z,6.40
2022-11-12T22:24:14.766Z,6.40
2022-11-12T22:26:41.581Z,6.40
2022-11-12T22:29:08.391Z,6.40
2022-11-12T22:31:35.212Z,6.40
2022-11-12T22:34:02.894Z,6.40
2022-11-12T22:36:31.164Z,6.40
2022-11-12T22:38:58.149Z,6.40
2022-11-12T22:41:31.196Z,6.40
2022-11-12T22:46:47.245Z,6.50
2022-11-12T22:51:42.013Z,6.50
2022-11-12T22:54:10.291Z,6.50
2022-11-12T22:59:23.784Z,6.50
2022-11-12T23:01:50.663Z,6.50
2022-11-12T23:04:17.714Z,6.50
2022-11-12T23:06:44.711Z,6.40
2022-11-12T23:12:02.815Z,6.40
2022-11-12T23:14:29.607Z,6.40
2022-11-12T23:16:59.337Z,6.40
2022-11-12T23:19:26.183Z,6.50
2022-11-12T23:24:39.902Z,6.40
2022-11-12T23:27:06.649Z,6.50
2022-11-12T23:29:33.401Z,6.40
2022-11-12T23:32:00.144Z,6.40
2022-11-12T23:34:26.942Z,6.40
2022-11-12T23:36:53.681Z,6.40
2022-11-12T23:39:20.424Z,6.40
2022-11-12T23:41:47.178Z,6.40
2022-11-12T23:44:13.924Z,6.40
2022-11-12T23:46:40.655Z,6.40
2022-11-12T23:49:07.436Z,6.40
2022-11-12T23:51:34.200Z,6.40
2022-11-12T23:54:01.015Z,6.40
2022-11-12T23:56:27.744Z,6.40
